createdAt,value
2018-01-26T00:00:34.853Z,999.82
2018-01-26T00:01:15.423Z,999.78
2018-01-26T00:01:55.999Z,999.83
2018-01-26T00:02:36.607Z,999.82
2018-01-26T00:03:17.121Z,999.79
2018-01-26T00:03:57.689Z,999.79
2018-01-26T00:04:38.188Z,999.75
2018-01-26T00:05:18.761Z,999.79
2018-01-26T00:05:59.283Z,999.76
2018-01-26T00:06:39.833Z,999.79
2018-01-26T00:07:20.402Z,999.75
2018-01-26T00:08:00.976Z,999.76
2018-01-26T00:08:41.605Z,999.8
2018-01-26T00:09:22.181Z,999.8
2018-01-26T00:10:02.698Z,999.82
2018-01-26T00:10:43.293Z,999.81
2018-01-26T00:11:23.788Z,999.83
2018-01-26T00:12:04.362Z,999.86
2018-01-26T00:12:44.929Z,999.85
2018-01-26T00:13:25.464Z,999.89
2018-01-26T00:14:06.030Z,999.9
2018-01-26T00:14:46.537Z,999.9
2018-01-26T00:15:27.089Z,999.93
2018-01-26T00:16:07.648Z,1000.01
2018-01-26T00:16:48.205Z,1000.01
2018-01-26T00:17:28.813Z,1000.02
2018-01-26T00:18:09.341Z,1000.08
2018-01-26T00:18:49.841Z,1000.15
2018-01-26T00:19:30.443Z,1000.1
2018-01-26T00:20:10.967Z,1000.14
2018-01-26T00:20:51.519Z,1000.12
2018-01-26T00:21:32.056Z,1000.18
2018-01-26T00:22:12.631Z,1000.22
2018-01-26T00:22:53.174Z,1000.22
2018-01-26T00:23:33.714Z,1000.25
2018-01-26T00:24:14.221Z,1000.2
2018-01-26T00:24:54.823Z,1000.25
2018-01-26T00:25:35.334Z,1000.33
2018-01-26T00:26:15.897Z,1000.34
2018-01-26T00:26:56.427Z,1000.42
2018-01-26T00:27:37.007Z,1000.42
2018-01-26T00:28:17.587Z,1000.42
2018-01-26T00:28:58.190Z,1000.42
2018-01-26T00:29:38.733Z,1000.43
2018-01-26T00:30:19.356Z,1000.41
2018-01-26T00:30:59.917Z,1000.41
2018-01-26T00:31:40.485Z,1000.41
2018-01-26T00:32:20.997Z,1000.42
2018-01-26T00:33:01.554Z,1000.42
2018-01-26T00:33:42.098Z,1000.4
2018-01-26T00:34:22.664Z,1000.43
2018-01-26T00:35:03.208Z,1000.39
2018-01-26T00:35:43.795Z,1000.4
2018-01-26T00:36:24.328Z,1000.49
2018-01-26T00:37:04.846Z,1000.52
2018-01-26T00:37:45.414Z,1000.51
2018-01-26T00:38:25.995Z,1000.52
2018-01-26T00:39:06.540Z,1000.52
2018-01-26T00:39:47.112Z,1000.53
2018-01-26T00:40:27.674Z,1000.48
2018-01-26T00:41:08.225Z,1000.52
2018-01-26T00:41:48.758Z,1000.47
2018-01-26T00:42:29.351Z,1000.48
2018-01-26T00:43:09.908Z,1000.46
2018-01-26T00:43:50.468Z,1000.48
2018-01-26T00:44:31.053Z,1000.57
2018-01-26T00:45:11.592Z,1000.54
2018-01-26T00:45:52.166Z,1000.6
2018-01-26T00:46:32.715Z,1000.59
2018-01-26T00:47:13.253Z,1000.59
2018-01-26T00:47:53.817Z,1000.64
2018-01-26T00:48:34.373Z,1000.61
2018-01-26T00:49:14.921Z,1000.61
2018-01-26T00:49:55.460Z,1000.64
2018-01-26T00:50:36.057Z,1000.61
2018-01-26T00:51:16.558Z,1000.59
2018-01-26T00:51:57.123Z,1000.63
2018-01-26T00:52:37.715Z,1000.61
2018-01-26T00:53:18.241Z,1000.6
2018-01-26T00:53:58.805Z,1000.64
2018-01-26T00:54:39.342Z,1000.63
2018-01-26T00:55:19.896Z,1000.64
2018-01-26T00:56:00.444Z,1000.64
2018-01-26T00:56:40.986Z,1000.67
2018-01-26T00:57:21.523Z,1000.66
2018-01-26T00:58:02.112Z,1000.65
2018-01-26T00:58:42.644Z,1000.65
2018-01-26T00:59:23.211Z,1000.65
2018-01-26T01:00:03.761Z,1000.65
2018-01-26T01:00:44.306Z,1000.64
2018-01-26T01:01:24.854Z,1000.67
2018-01-26T01:02:05.428Z,1000.64
2018-01-26T01:02:45.988Z,1000.7
2018-01-26T01:03:26.568Z,1000.68
2018-01-26T01:04:07.114Z,1000.63
2018-01-26T01:04:47.670Z,1000.68
2018-01-26T01:05:28.228Z,1000.64
2018-01-26T01:06:08.783Z,1000.62
2018-01-26T01:06:49.375Z,1000.62
2018-01-26T01:07:29.919Z,1000.67
2018-01-26T01:08:10.455Z,1000.67
2018-01-26T01:08:51.012Z,1000.61
2018-01-26T01:09:31.575Z,1000.69
2018-01-26T01:10:12.134Z,1000.68
2018-01-26T01:10:52.673Z,1000.67
2018-01-26T01:11:33.200Z,1000.66
2018-01-26T01:12:13.744Z,1000.68
2018-01-26T01:12:54.297Z,1000.69
2018-01-26T01:13:34.881Z,1000.7
2018-01-26T01:14:15.378Z,1000.67
2018-01-26T01:14:56.022Z,1000.71
2018-01-26T01:15:36.644Z,1000.7
2018-01-26T01:16:17.196Z,1000.74
2018-01-26T01:16:57.747Z,1000.77
2018-01-26T01:17:38.256Z,1000.75
2018-01-26T01:18:18.844Z,1000.82
2018-01-26T01:18:59.383Z,1000.85
2018-01-26T01:19:39.933Z,1000.83
2018-01-26T01:20:20.489Z,1000.86
2018-01-26T01:21:01.012Z,1000.83
2018-01-26T01:21:41.577Z,1000.83
2018-01-26T01:22:22.119Z,1000.87
2018-01-26T01:23:02.673Z,1000.81
2018-01-26T01:23:43.241Z,1000.81
2018-01-26T01:24:23.799Z,1000.84
2018-01-26T01:25:04.338Z,1000.86
2018-01-26T01:25:44.895Z,1000.88
2018-01-26T01:26:25.421Z,1000.84
2018-01-26T01:27:05.984Z,1000.87
2018-01-26T01:27:46.520Z,1000.94
2018-01-26T01:28:27.085Z,1000.91
2018-01-26T01:29:07.649Z,1000.94
2018-01-26T01:29:48.182Z,1000.94
2018-01-26T01:30:28.720Z,1000.96
2018-01-26T01:31:09.273Z,1000.97
2018-01-26T01:31:49.873Z,1000.98
2018-01-26T01:32:30.448Z,1001.03
2018-01-26T01:33:11.004Z,1001.01
2018-01-26T01:33:51.546Z,1001.06
2018-01-26T01:34:32.111Z,1001.08
2018-01-26T01:35:12.655Z,1001.05
2018-01-26T01:35:53.201Z,1001.04
2018-01-26T01:36:33.761Z,1001.05
2018-01-26T01:37:14.299Z,1001.06
2018-01-26T01:37:54.864Z,1001.05
2018-01-26T01:38:35.403Z,1001.07
2018-01-26T01:39:15.914Z,1001.07
2018-01-26T01:39:56.500Z,1001.04
2018-01-26T01:40:37.020Z,1001.02
2018-01-26T01:41:17.602Z,1001.11
2018-01-26T01:41:58.101Z,1001.09
2018-01-26T01:42:38.670Z,1001.12
2018-01-26T01:43:19.214Z,1001.09
2018-01-26T01:43:59.809Z,1001.11
2018-01-26T01:44:40.320Z,1001.15
2018-01-26T01:45:20.844Z,1001.11
2018-01-26T01:46:01.388Z,1001.13
2018-01-26T01:46:41.929Z,1001.09
2018-01-26T01:47:22.458Z,1001.07
2018-01-26T01:48:03.007Z,1001.14
2018-01-26T01:48:43.549Z,1001.15
2018-01-26T01:49:24.069Z,1001.19
2018-01-26T01:50:04.614Z,1001.21
2018-01-26T01:50:45.162Z,1001.19
2018-01-26T01:51:25.704Z,1001.16
2018-01-26T01:52:06.252Z,1001.15
2018-01-26T01:52:46.773Z,1001.12
2018-01-26T01:53:27.309Z,1001.09
2018-01-26T01:54:07.867Z,1001.12
2018-01-26T01:54:48.410Z,1001.09
2018-01-26T01:55:28.983Z,1001.13
2018-01-26T01:56:09.534Z,1001.08
2018-01-26T01:56:50.078Z,1001.12
2018-01-26T01:57:30.612Z,1001.11
2018-01-26T01:58:11.165Z,1001.15
2018-01-26T01:58:51.713Z,1001.19
2018-01-26T01:59:32.267Z,1001.16
2018-01-26T02:00:12.801Z,1001.17
2018-01-26T02:00:53.353Z,1001.25
2018-01-26T02:01:33.912Z,1001.26
2018-01-26T02:02:14.448Z,1001.24
2018-01-26T02:02:55.009Z,1001.25
2018-01-26T02:03:35.570Z,1001.25
2018-01-26T02:04:16.125Z,1001.26
2018-01-26T02:04:56.678Z,1001.22
2018-01-26T02:05:37.182Z,1001.27
2018-01-26T02:06:17.728Z,1001.27
2018-01-26T02:06:58.280Z,1001.27
2018-01-26T02:07:38.858Z,1001.27
2018-01-26T02:08:19.386Z,1001.29
2018-01-26T02:08:59.921Z,1001.26
2018-01-26T02:09:40.449Z,1001.27
2018-01-26T02:10:20.987Z,1001.26
2018-01-26T02:11:01.593Z,1001.28
2018-01-26T02:11:42.121Z,1001.27
2018-01-26T02:12:22.713Z,1001.24
2018-01-26T02:13:03.204Z,1001.21
2018-01-26T02:13:43.730Z,1001.23
2018-01-26T02:14:24.275Z,1001.22
2018-01-26T02:15:04.838Z,1001.22
2018-01-26T02:15:45.336Z,1001.23
2018-01-26T02:16:25.887Z,1001.22
2018-01-26T02:17:06.416Z,1001.2
2018-01-26T02:17:46.984Z,1001.24
2018-01-26T02:18:27.550Z,1001.18
2018-01-26T02:19:08.088Z,1001.2
2018-01-26T02:19:48.622Z,1001.18
2018-01-26T02:20:29.183Z,1001.21
2018-01-26T02:21:09.662Z,1001.23
2018-01-26T02:21:50.245Z,1001.22
2018-01-26T02:22:30.782Z,1001.3
2018-01-26T02:23:11.338Z,1001.29
2018-01-26T02:23:51.898Z,1001.26
2018-01-26T02:24:32.440Z,1001.29
2018-01-26T02:25:13.017Z,1001.28
2018-01-26T02:25:53.609Z,1001.3
2018-01-26T02:26:34.147Z,1001.27
2018-01-26T02:27:14.690Z,1001.35
2018-01-26T02:27:55.263Z,1001.33
2018-01-26T02:28:35.819Z,1001.32
2018-01-26T02:29:16.391Z,1001.34
2018-01-26T02:29:56.965Z,1001.37
2018-01-26T02:30:37.542Z,1001.35
2018-01-26T02:31:18.112Z,1001.34
2018-01-26T02:31:58.665Z,1001.37
2018-01-26T02:32:39.198Z,1001.38
2018-01-26T02:33:19.775Z,1001.36
2018-01-26T02:34:00.304Z,1001.34
2018-01-26T02:34:41.910Z,1001.39
2018-01-26T02:35:22.442Z,1001.37
2018-01-26T02:36:02.966Z,1001.36
2018-01-26T02:36:43.523Z,1001.33
2018-01-26T02:37:24.055Z,1001.32
2018-01-26T02:38:04.639Z,1001.36
2018-01-26T02:38:45.163Z,1001.37
2018-01-26T02:39:25.742Z,1001.33
2018-01-26T02:40:06.279Z,1001.34
2018-01-26T02:40:46.835Z,1001.36
2018-01-26T02:41:27.463Z,1001.37
2018-01-26T02:42:08.039Z,1001.36
2018-01-26T02:42:48.636Z,1001.34
2018-01-26T02:43:29.159Z,1001.38
2018-01-26T02:44:09.707Z,1001.37
2018-01-26T02:44:50.239Z,1001.34
2018-01-26T02:45:30.772Z,1001.37
2018-01-26T02:46:11.315Z,1001.41
2018-01-26T02:46:51.875Z,1001.38
2018-01-26T02:47:32.447Z,1001.38
2018-01-26T02:48:12.979Z,1001.39
2018-01-26T02:48:53.512Z,1001.36
2018-01-26T02:49:34.139Z,1001.33
2018-01-26T02:50:14.708Z,1001.35
2018-01-26T02:50:55.216Z,1001.31
2018-01-26T02:51:35.773Z,1001.33
2018-01-26T02:52:16.348Z,1001.29
2018-01-26T02:52:56.858Z,1001.3
2018-01-26T02:53:37.418Z,1001.32
2018-01-26T02:54:17.975Z,1001.3
2018-01-26T02:54:58.563Z,1001.32
2018-01-26T02:55:39.093Z,1001.36
2018-01-26T02:56:19.664Z,1001.35
2018-01-26T02:57:00.191Z,1001.38
2018-01-26T02:57:40.764Z,1001.34
2018-01-26T02:58:21.318Z,1001.34
2018-01-26T02:59:01.864Z,1001.32
2018-01-26T02:59:42.437Z,1001.37
2018-01-26T03:00:23.002Z,1001.36
2018-01-26T03:01:03.587Z,1001.37
2018-01-26T03:01:44.177Z,1001.37
2018-01-26T03:02:24.727Z,1001.36
2018-01-26T03:03:05.284Z,1001.35
2018-01-26T03:03:45.825Z,1001.38
2018-01-26T03:04:26.347Z,1001.35
2018-01-26T03:05:06.917Z,1001.4
2018-01-26T03:05:47.509Z,1001.37
2018-01-26T03:06:28.044Z,1001.4
2018-01-26T03:07:08.584Z,1001.39
2018-01-26T03:07:49.170Z,1001.42
2018-01-26T03:08:29.680Z,1001.44
2018-01-26T03:09:10.248Z,1001.39
2018-01-26T03:09:50.773Z,1001.42
2018-01-26T03:10:31.326Z,1001.46
2018-01-26T03:11:11.883Z,1001.48
2018-01-26T03:11:52.436Z,1001.46
2018-01-26T03:12:32.992Z,1001.44
2018-01-26T03:13:13.524Z,1001.43
2018-01-26T03:13:54.074Z,1001.44
2018-01-26T03:14:34.642Z,1001.51
2018-01-26T03:15:15.167Z,1001.5
2018-01-26T03:15:55.757Z,1001.51
2018-01-26T03:16:36.261Z,1001.53
2018-01-26T03:17:16.802Z,1001.52
2018-01-26T03:17:57.359Z,1001.5
2018-01-26T03:18:37.913Z,1001.52
2018-01-26T03:19:18.498Z,1001.54
2018-01-26T03:19:59.017Z,1001.53
2018-01-26T03:20:39.551Z,1001.56
2018-01-26T03:21:20.096Z,1001.55
2018-01-26T03:22:00.626Z,1001.57
2018-01-26T03:22:41.199Z,1001.53
2018-01-26T03:23:21.729Z,1001.55
2018-01-26T03:24:02.270Z,1001.51
2018-01-26T03:24:42.797Z,1001.53
2018-01-26T03:25:23.361Z,1001.51
2018-01-26T03:26:03.914Z,1001.52
2018-01-26T03:26:44.425Z,1001.55
2018-01-26T03:27:24.974Z,1001.5
2018-01-26T03:28:05.562Z,1001.5
2018-01-26T03:28:46.131Z,1001.51
2018-01-26T03:29:26.753Z,1001.54
2018-01-26T03:30:07.275Z,1001.55
2018-01-26T03:30:47.846Z,1001.58
2018-01-26T03:31:28.389Z,1001.61
2018-01-26T03:32:08.956Z,1001.54
2018-01-26T03:32:49.490Z,1001.58
2018-01-26T03:33:30.049Z,1001.6
2018-01-26T03:34:10.580Z,1001.58
2018-01-26T03:34:51.115Z,1001.54
2018-01-26T03:35:31.674Z,1001.58
2018-01-26T03:36:12.249Z,1001.58
2018-01-26T03:36:52.799Z,1001.57
2018-01-26T03:37:33.382Z,1001.58
2018-01-26T03:38:13.898Z,1001.59
2018-01-26T03:38:54.446Z,1001.61
2018-01-26T03:39:35.009Z,1001.63
2018-01-26T03:40:15.558Z,1001.66
2018-01-26T03:40:56.096Z,1001.63
2018-01-26T03:41:36.678Z,1001.64
2018-01-26T03:42:17.220Z,1001.63
2018-01-26T03:42:57.825Z,1001.63
2018-01-26T03:43:38.321Z,1001.62
2018-01-26T03:44:18.854Z,1001.59
2018-01-26T03:44:59.378Z,1001.62
2018-01-26T03:45:39.921Z,1001.62
2018-01-26T03:46:20.444Z,1001.68
2018-01-26T03:47:01.003Z,1001.67
2018-01-26T03:47:41.565Z,1001.65
2018-01-26T03:48:22.152Z,1001.67
2018-01-26T03:49:02.663Z,1001.68
2018-01-26T03:49:43.188Z,1001.69
2018-01-26T03:50:23.740Z,1001.71
2018-01-26T03:51:04.277Z,1001.7
2018-01-26T03:51:44.828Z,1001.71
2018-01-26T03:52:25.375Z,1001.71
2018-01-26T03:53:05.889Z,1001.72
2018-01-26T03:53:46.433Z,1001.7
2018-01-26T03:54:26.979Z,1001.75
2018-01-26T03:55:07.537Z,1001.74
2018-01-26T03:55:48.082Z,1001.73
2018-01-26T03:56:28.627Z,1001.75
2018-01-26T03:57:09.182Z,1001.74
2018-01-26T03:57:49.696Z,1001.77
2018-01-26T03:58:30.281Z,1001.72
2018-01-26T03:59:10.819Z,1001.75
2018-01-26T03:59:51.384Z,1001.73
2018-01-26T04:00:31.894Z,1001.77
2018-01-26T04:01:12.521Z,1001.76
2018-01-26T04:01:53.089Z,1001.78
2018-01-26T04:02:33.592Z,1001.79
2018-01-26T04:03:14.130Z,1001.82
2018-01-26T04:03:54.690Z,1001.84
2018-01-26T04:04:35.255Z,1001.86
2018-01-26T04:05:15.792Z,1001.89
2018-01-26T04:05:56.300Z,1001.86
2018-01-26T04:06:36.876Z,1001.87
2018-01-26T04:07:17.373Z,1001.88
2018-01-26T04:07:57.927Z,1001.86
2018-01-26T04:08:38.507Z,1001.87
2018-01-26T04:09:19.033Z,1001.81
2018-01-26T04:09:59.574Z,1001.89
2018-01-26T04:10:40.100Z,1001.87
2018-01-26T04:11:20.633Z,1001.9
2018-01-26T04:12:01.196Z,1001.89
2018-01-26T04:12:41.734Z,1001.96
2018-01-26T04:13:22.280Z,1001.93
2018-01-26T04:14:02.842Z,1001.93
2018-01-26T04:14:43.381Z,1001.91
2018-01-26T04:15:23.911Z,1001.97
2018-01-26T04:16:04.447Z,1001.95
2018-01-26T04:16:45.015Z,1001.92
2018-01-26T04:17:25.541Z,1001.94
2018-01-26T04:18:06.076Z,1001.95
2018-01-26T04:18:46.590Z,1001.95
2018-01-26T04:19:27.121Z,1001.92
2018-01-26T04:20:07.671Z,1001.96
2018-01-26T04:20:48.177Z,1001.94
2018-01-26T04:21:28.741Z,1001.98
2018-01-26T04:22:09.272Z,1001.97
2018-01-26T04:22:49.795Z,1001.98
2018-01-26T04:23:30.348Z,1002.01
2018-01-26T04:24:10.891Z,1001.97
2018-01-26T04:24:51.438Z,1002.02
2018-01-26T04:25:31.986Z,1001.99
2018-01-26T04:26:12.538Z,1002.02
2018-01-26T04:26:53.077Z,1002.03
2018-01-26T04:27:33.626Z,1002.02
2018-01-26T04:28:14.139Z,1002.01
2018-01-26T04:28:54.685Z,1002.01
2018-01-26T04:29:35.229Z,1001.98
2018-01-26T04:30:15.769Z,1001.99
2018-01-26T04:30:56.396Z,1002.01
2018-01-26T04:31:36.940Z,1002.06
2018-01-26T04:32:17.483Z,1002.02
2018-01-26T04:32:58.021Z,1001.99
2018-01-26T04:33:38.558Z,1002.05
2018-01-26T04:34:19.093Z,1002.05
2018-01-26T04:34:59.640Z,1002.06
2018-01-26T04:35:40.198Z,1002.03
2018-01-26T04:36:20.711Z,1002.07
2018-01-26T04:37:01.241Z,1002.07
2018-01-26T04:37:41.778Z,1002.06
2018-01-26T04:38:22.319Z,1002.04
2018-01-26T04:39:02.928Z,1002.04
2018-01-26T04:39:43.401Z,1002.04
2018-01-26T04:40:23.951Z,1002.03
2018-01-26T04:41:04.484Z,1002.06
2018-01-26T04:41:45.029Z,1002.05
2018-01-26T04:42:25.631Z,1002.03
2018-01-26T04:43:06.150Z,1002.03
2018-01-26T04:43:46.682Z,1002.01
2018-01-26T04:44:27.230Z,1002.04
2018-01-26T04:45:07.750Z,1001.99
2018-01-26T04:45:48.280Z,1002.04
2018-01-26T04:46:28.834Z,1002.06
2018-01-26T04:47:09.392Z,1002.04
2018-01-26T04:47:49.982Z,1002.05
2018-01-26T04:48:30.467Z,1002.01
2018-01-26T04:49:11.016Z,1002.01
2018-01-26T04:49:51.568Z,1002.01
2018-01-26T04:50:32.123Z,1002.01
2018-01-26T04:51:12.695Z,1002.05
2018-01-26T04:51:53.207Z,1002.03
2018-01-26T04:52:33.697Z,1001.98
2018-01-26T04:53:14.240Z,1002
2018-01-26T04:53:54.767Z,1002.04
2018-01-26T04:54:35.313Z,1002
2018-01-26T04:55:15.852Z,1002.12
2018-01-26T04:55:56.451Z,1002.07
2018-01-26T04:56:37.056Z,1002.06
2018-01-26T04:57:17.536Z,1002
2018-01-26T04:57:58.117Z,1002.07
2018-01-26T04:58:38.695Z,1002.14
2018-01-26T04:59:19.228Z,1002.11
2018-01-26T04:59:59.801Z,1002.1
2018-01-26T05:00:40.348Z,1002.11
2018-01-26T05:01:20.869Z,1002.07
2018-01-26T05:02:01.397Z,1002.1
2018-01-26T05:02:41.978Z,1002.14
2018-01-26T05:03:22.499Z,1002.15
2018-01-26T05:04:03.044Z,1002.13
2018-01-26T05:04:43.611Z,1002.19
2018-01-26T05:05:24.201Z,1002.16
2018-01-26T05:06:04.730Z,1002.13
2018-01-26T05:06:45.282Z,1002.15
2018-01-26T05:07:25.796Z,1002.12
2018-01-26T05:08:06.359Z,1002.12
2018-01-26T05:08:46.883Z,1002.12
2018-01-26T05:09:27.410Z,1002.1
2018-01-26T05:10:07.952Z,1002.06
2018-01-26T05:10:48.487Z,1002.04
2018-01-26T05:11:28.999Z,1002.07
2018-01-26T05:12:09.511Z,1002.1
2018-01-26T05:12:50.058Z,1002.06
2018-01-26T05:13:30.602Z,1002.09
2018-01-26T05:14:11.150Z,1002.14
2018-01-26T05:14:51.661Z,1002.1
2018-01-26T05:15:32.204Z,1002.13
2018-01-26T05:16:12.760Z,1002.16
2018-01-26T05:16:53.312Z,1002.13
2018-01-26T05:17:33.859Z,1002.14
2018-01-26T05:18:14.398Z,1002.18
2018-01-26T05:18:54.944Z,1002.19
2018-01-26T05:19:35.483Z,1002.16
2018-01-26T05:20:16.039Z,1002.19
2018-01-26T05:20:56.602Z,1002.15
2018-01-26T05:21:37.156Z,1002.17
2018-01-26T05:22:17.739Z,1002.19
2018-01-26T05:22:58.268Z,1002.16
2018-01-26T05:23:38.805Z,1002.18
2018-01-26T05:24:19.324Z,1002.18
2018-01-26T05:24:59.867Z,1002.21
2018-01-26T05:25:40.424Z,1002.17
2018-01-26T05:26:21.002Z,1002.16
2018-01-26T05:27:01.542Z,1002.19
2018-01-26T05:27:42.076Z,1002.16
2018-01-26T05:28:22.591Z,1002.16
2018-01-26T05:29:03.194Z,1002.17
2018-01-26T05:29:43.695Z,1002.2
2018-01-26T05:30:24.286Z,1002.17
2018-01-26T05:31:04.788Z,1002.19
2018-01-26T05:31:45.307Z,1002.21
2018-01-26T05:32:25.859Z,1002.15
2018-01-26T05:33:06.400Z,1002.15
2018-01-26T05:33:46.959Z,1002.2
2018-01-26T05:34:27.516Z,1002.2
2018-01-26T05:35:08.091Z,1002.21
2018-01-26T05:35:48.639Z,1002.2
2018-01-26T05:36:29.179Z,1002.24
2018-01-26T05:37:09.736Z,1002.19
2018-01-26T05:37:50.332Z,1002.22
2018-01-26T05:38:30.829Z,1002.24
2018-01-26T05:39:11.380Z,1002.21
2018-01-26T05:39:51.947Z,1002.24
2018-01-26T05:40:32.509Z,1002.21
2018-01-26T05:41:13.054Z,1002.21
2018-01-26T05:41:53.582Z,1002.28
2018-01-26T05:42:34.141Z,1002.29
2018-01-26T05:43:14.693Z,1002.27
2018-01-26T05:43:55.251Z,1002.25
2018-01-26T05:44:35.795Z,1002.28
2018-01-26T05:45:16.338Z,1002.25
2018-01-26T05:45:56.926Z,1002.27
2018-01-26T05:46:37.435Z,1002.29
2018-01-26T05:47:17.996Z,1002.29
2018-01-26T05:47:58.557Z,1002.29
2018-01-26T05:48:39.101Z,1002.31
2018-01-26T05:49:19.644Z,1002.29
2018-01-26T05:50:00.195Z,1002.3
2018-01-26T05:50:40.762Z,1002.33
2018-01-26T05:51:21.282Z,1002.31
2018-01-26T05:52:01.834Z,1002.35
2018-01-26T05:52:42.374Z,1002.33
2018-01-26T05:53:22.906Z,1002.31
2018-01-26T05:54:03.476Z,1002.36
2018-01-26T05:54:44.014Z,1002.35
2018-01-26T05:55:24.576Z,1002.41
2018-01-26T05:56:05.134Z,1002.42
2018-01-26T05:56:45.704Z,1002.39
2018-01-26T05:57:26.255Z,1002.41
2018-01-26T05:58:06.775Z,1002.39
2018-01-26T05:58:47.309Z,1002.44
2018-01-26T05:59:27.854Z,1002.43
2018-01-26T06:00:08.409Z,1002.44
2018-01-26T06:00:48.973Z,1002.43
2018-01-26T06:01:29.514Z,1002.39
2018-01-26T06:02:10.096Z,1002.35
2018-01-26T06:02:50.628Z,1002.41
2018-01-26T06:03:31.161Z,1002.37
2018-01-26T06:04:11.735Z,1002.42
2018-01-26T06:04:52.290Z,1002.44
2018-01-26T06:05:32.843Z,1002.45
2018-01-26T06:06:13.394Z,1002.41
2018-01-26T06:06:53.939Z,1002.49
2018-01-26T06:07:34.488Z,1002.48
2018-01-26T06:08:15.132Z,1002.48
2018-01-26T06:08:55.690Z,1002.51
2018-01-26T06:09:36.226Z,1002.49
2018-01-26T06:10:16.758Z,1002.47
2018-01-26T06:10:57.320Z,1002.46
2018-01-26T06:11:37.948Z,1002.47
2018-01-26T06:12:18.469Z,1002.43
2018-01-26T06:12:59.016Z,1002.44
2018-01-26T06:13:39.580Z,1002.44
2018-01-26T06:14:20.160Z,1002.4
2018-01-26T06:15:00.692Z,1002.46
2018-01-26T06:15:41.239Z,1002.44
2018-01-26T06:16:21.808Z,1002.51
2018-01-26T06:17:02.336Z,1002.51
2018-01-26T06:17:42.932Z,1002.52
2018-01-26T06:18:23.415Z,1002.53
2018-01-26T06:19:04.000Z,1002.5
2018-01-26T06:19:44.560Z,1002.59
2018-01-26T06:20:25.068Z,1002.54
2018-01-26T06:21:05.625Z,1002.53
2018-01-26T06:21:46.163Z,1002.52
2018-01-26T06:22:26.737Z,1002.56
2018-01-26T06:23:07.344Z,1002.57
2018-01-26T06:23:47.847Z,1002.63
2018-01-26T06:24:28.419Z,1002.61
2018-01-26T06:25:09.055Z,1002.6
2018-01-26T06:25:49.556Z,1002.56
2018-01-26T06:26:30.097Z,1002.6
2018-01-26T06:27:10.628Z,1002.63
2018-01-26T06:27:51.187Z,1002.64
2018-01-26T06:28:31.820Z,1002.67
2018-01-26T06:29:12.328Z,1002.64
2018-01-26T06:29:52.882Z,1002.65
2018-01-26T06:30:33.386Z,1002.7
2018-01-26T06:31:13.968Z,1002.69
2018-01-26T06:31:54.476Z,1002.68
2018-01-26T06:32:35.018Z,1002.73
2018-01-26T06:33:15.572Z,1002.69
2018-01-26T06:33:56.131Z,1002.66
2018-01-26T06:34:36.688Z,1002.74
2018-01-26T06:35:17.210Z,1002.67
2018-01-26T06:35:57.798Z,1002.73
2018-01-26T06:36:38.356Z,1002.73
2018-01-26T06:37:18.914Z,1002.73
2018-01-26T06:37:59.451Z,1002.73
2018-01-26T06:38:40.010Z,1002.74
2018-01-26T06:39:20.520Z,1002.71
2018-01-26T06:40:01.083Z,1002.72
2018-01-26T06:40:41.609Z,1002.72
2018-01-26T06:41:22.158Z,1002.7
2018-01-26T06:42:02.675Z,1002.71
2018-01-26T06:42:43.221Z,1002.69
2018-01-26T06:43:23.772Z,1002.66
2018-01-26T06:44:04.319Z,1002.68
2018-01-26T06:44:44.842Z,1002.64
2018-01-26T06:45:25.380Z,1002.68
2018-01-26T06:46:05.942Z,1002.67
2018-01-26T06:46:46.500Z,1002.66
2018-01-26T06:47:27.045Z,1002.69
2018-01-26T06:48:07.611Z,1002.69
2018-01-26T06:48:48.160Z,1002.65
2018-01-26T06:49:28.712Z,1002.7
2018-01-26T06:50:09.277Z,1002.68
2018-01-26T06:50:49.838Z,1002.71
2018-01-26T06:51:30.373Z,1002.73
2018-01-26T06:52:10.923Z,1002.69
2018-01-26T06:52:51.488Z,1002.72
2018-01-26T06:53:32.056Z,1002.71
2018-01-26T06:54:12.593Z,1002.71
2018-01-26T06:54:53.166Z,1002.7
2018-01-26T06:55:33.709Z,1002.7
2018-01-26T06:56:14.256Z,1002.73
2018-01-26T06:56:54.815Z,1002.8
2018-01-26T06:57:35.374Z,1002.81
2018-01-26T06:58:15.921Z,1002.8
2018-01-26T06:58:56.464Z,1002.84
2018-01-26T06:59:37.003Z,1002.81
2018-01-26T07:00:17.571Z,1002.82
2018-01-26T07:00:58.099Z,1002.85
2018-01-26T07:01:38.656Z,1002.83
2018-01-26T07:02:19.206Z,1002.86
2018-01-26T07:02:59.758Z,1002.83
2018-01-26T07:03:40.288Z,1002.83
2018-01-26T07:04:20.815Z,1002.9
2018-01-26T07:05:01.362Z,1002.91
2018-01-26T07:05:41.874Z,1002.94
2018-01-26T07:06:22.380Z,1002.96
2018-01-26T07:07:02.968Z,1002.96
2018-01-26T07:07:43.507Z,1002.94
2018-01-26T07:08:24.057Z,1003.03
2018-01-26T07:09:04.655Z,1003.01
2018-01-26T07:09:45.167Z,1002.99
2018-01-26T07:10:25.863Z,1002.99
2018-01-26T07:11:06.362Z,1002.96
2018-01-26T07:11:46.907Z,1002.97
2018-01-26T07:12:27.470Z,1003.05
2018-01-26T07:13:08.018Z,1003.02
2018-01-26T07:13:48.575Z,1003.05
2018-01-26T07:14:29.137Z,1003.04
2018-01-26T07:15:09.708Z,1003.08
2018-01-26T07:15:50.246Z,1003.07
2018-01-26T07:16:30.856Z,1003.09
2018-01-26T07:17:11.604Z,1003.1
2018-01-26T07:17:52.221Z,1003.13
2018-01-26T07:18:32.828Z,1003.11
2018-01-26T07:19:13.336Z,1003.08
2018-01-26T07:19:53.890Z,1003.15
2018-01-26T07:20:34.475Z,1003.15
2018-01-26T07:21:15.021Z,1003.14
2018-01-26T07:21:55.590Z,1003.11
2018-01-26T07:22:36.128Z,1003.13
2018-01-26T07:23:16.678Z,1003.19
2018-01-26T07:23:57.244Z,1003.22
2018-01-26T07:24:37.810Z,1003.21
2018-01-26T07:25:18.355Z,1003.23
2018-01-26T07:25:58.925Z,1003.23
2018-01-26T07:26:39.495Z,1003.24
2018-01-26T07:27:20.111Z,1003.2
2018-01-26T07:28:00.704Z,1003.25
2018-01-26T07:28:41.300Z,1003.22
2018-01-26T07:29:21.809Z,1003.27
2018-01-26T07:30:02.346Z,1003.3
2018-01-26T07:30:42.874Z,1003.3
2018-01-26T07:31:23.462Z,1003.34
2018-01-26T07:32:09.852Z,1003.34
2018-01-26T07:32:50.260Z,1003.34
2018-01-26T07:33:30.742Z,1003.29
2018-01-26T07:34:11.319Z,1003.31
2018-01-26T07:34:51.808Z,1003.3
2018-01-26T07:35:32.405Z,1003.33
2018-01-26T07:36:12.882Z,1003.35
2018-01-26T07:36:53.478Z,1003.41
2018-01-26T07:37:34.002Z,1003.39
2018-01-26T07:38:14.533Z,1003.4
2018-01-26T07:38:55.025Z,1003.48
2018-01-26T07:39:35.621Z,1003.43
2018-01-26T07:40:16.176Z,1003.47
2018-01-26T07:40:56.713Z,1003.49
2018-01-26T07:41:37.271Z,1003.46
2018-01-26T07:42:17.835Z,1003.41
2018-01-26T07:42:58.399Z,1003.47
2018-01-26T07:43:38.984Z,1003.51
2018-01-26T07:44:19.548Z,1003.51
2018-01-26T07:46:24.417Z,1003.51
2018-01-26T07:47:04.960Z,1003.54
2018-01-26T07:47:45.518Z,1003.53
2018-01-26T07:48:26.168Z,1003.54
2018-01-26T07:49:06.704Z,1003.53
2018-01-26T07:49:47.458Z,1003.54
2018-01-26T07:50:27.803Z,1003.57
2018-01-26T07:51:08.380Z,1003.57
2018-01-26T07:51:49.277Z,1003.5
2018-01-26T07:52:29.461Z,1003.55
2018-01-26T07:53:10.456Z,1003.58
2018-01-26T07:53:50.989Z,1003.57
2018-01-26T07:54:31.513Z,1003.58
2018-01-26T07:55:12.054Z,1003.54
2018-01-26T07:55:52.646Z,1003.61
2018-01-26T07:56:33.182Z,1003.57
2018-01-26T07:57:13.779Z,1003.57
2018-01-26T07:57:54.292Z,1003.63
2018-01-26T07:58:34.860Z,1003.56
2018-01-26T07:59:15.429Z,1003.58
2018-01-26T07:59:55.988Z,1003.56
2018-01-26T08:00:36.530Z,1003.54
2018-01-26T08:01:17.362Z,1003.6
2018-01-26T08:01:57.979Z,1003.6
2018-01-26T08:02:38.450Z,1003.66
2018-01-26T08:03:19.087Z,1003.59
2018-01-26T08:03:59.651Z,1003.61
2018-01-26T08:04:40.235Z,1003.62
2018-01-26T08:05:20.807Z,1003.65
2018-01-26T08:06:01.287Z,1003.62
2018-01-26T08:06:41.841Z,1003.59
2018-01-26T08:07:22.434Z,1003.6
2018-01-26T08:08:02.967Z,1003.65
2018-01-26T08:08:43.503Z,1003.64
2018-01-26T08:09:24.046Z,1003.69
2018-01-26T08:10:04.626Z,1003.71
2018-01-26T08:10:45.252Z,1003.68
2018-01-26T08:11:25.766Z,1003.7
2018-01-26T08:12:06.243Z,1003.7
2018-01-26T08:12:46.798Z,1003.7
2018-01-26T08:13:27.344Z,1003.66
2018-01-26T08:14:07.894Z,1003.69